createdAt,value
2019-03-25T00:01:32.995Z,75.83
2019-03-25T00:04:01.463Z,67.23
2019-03-25T00:06:29.925Z,64.73
2019-03-25T00:09:05.292Z,72.00
2019-03-25T00:11:28.576Z,66.47
2019-03-25T00:13:57.039Z,68.23
2019-03-25T00:16:25.497Z,62.37
2019-03-25T00:18:53.957Z,67.67
2019-03-25T00:21:22.491Z,66.27
2019-03-25T00:23:50.951Z,67.60
2019-03-25T00:26:19.702Z,68.17
2019-03-25T00:28:48.163Z,63.33
2019-03-25T00:31:16.690Z,72.53
2019-03-25T00:33:45.145Z,67.20
2019-03-25T00:36:13.828Z,61.30
2019-03-25T00:38:42.283Z,67.40
2019-03-25T00:41:10.750Z,62.80
2019-03-25T00:43:39.271Z,64.50
2019-03-25T00:46:07.733Z,63.73
2019-03-25T00:48:36.299Z,65.43
2019-03-25T00:51:04.823Z,57.47
2019-03-25T00:53:33.347Z,59.60
2019-03-25T00:56:01.835Z,55.27
2019-03-25T00:58:30.277Z,69.20
2019-03-25T01:00:58.742Z,61.27
2019-03-25T01:03:27.274Z,61.73
2019-03-25T01:05:55.759Z,58.83
2019-03-25T01:08:24.223Z,59.40
2019-03-25T01:10:52.754Z,59.47
2019-03-25T01:13:21.248Z,57.20
2019-03-25T01:15:50.124Z,56.70
2019-03-25T01:18:18.584Z,56.17
2019-03-25T01:20:47.044Z,59.00
2019-03-25T01:23:15.497Z,48.30
2019-03-25T01:25:43.971Z,51.97
2019-03-25T01:28:12.506Z,58.97
2019-03-25T01:30:40.959Z,53.67
2019-03-25T01:33:09.419Z,51.53
2019-03-25T01:35:37.871Z,56.00
2019-03-25T01:38:06.354Z,48.93
2019-03-25T01:40:34.808Z,51.57
2019-03-25T01:43:03.299Z,47.17
2019-03-25T01:45:31.745Z,56.43
2019-03-25T01:48:00.202Z,53.70
2019-03-25T01:50:28.673Z,50.77
2019-03-25T01:52:57.131Z,52.37
2019-03-25T01:55:25.631Z,44.93
2019-03-25T01:57:54.094Z,45.27
2019-03-25T02:00:22.647Z,48.67
2019-03-25T02:02:51.164Z,53.03
2019-03-25T02:05:19.619Z,59.50
2019-03-25T02:07:48.103Z,44.43
2019-03-25T02:10:17.181Z,43.43
2019-03-25T02:12:45.718Z,45.60
2019-03-25T02:15:14.511Z,49.30
2019-03-25T02:17:43.008Z,49.27
2019-03-25T02:20:11.617Z,46.43
2019-03-25T02:22:40.218Z,50.87
2019-03-25T02:25:09.128Z,46.57
2019-03-25T02:27:37.673Z,43.87
2019-03-25T02:30:10.094Z,42.97
2019-03-25T02:32:38.618Z,42.47
2019-03-25T02:35:07.179Z,43.27
2019-03-25T02:37:35.636Z,44.33
2019-03-25T02:40:05.828Z,41.93
2019-03-25T02:42:34.311Z,42.57
2019-03-25T02:45:03.112Z,45.23
2019-03-25T02:47:31.577Z,49.00
2019-03-25T02:50:00.059Z,44.73
2019-03-25T02:52:28.542Z,47.00
2019-03-25T02:54:57.041Z,41.10
2019-03-25T02:57:25.508Z,47.77
2019-03-25T02:59:53.961Z,45.90
2019-03-25T03:02:22.428Z,41.37
2019-03-25T03:04:50.984Z,44.17
2019-03-25T03:07:19.515Z,41.20
2019-03-25T03:09:47.973Z,44.23
2019-03-25T03:12:16.454Z,44.20
2019-03-25T03:14:44.984Z,38.40
2019-03-25T03:17:13.517Z,43.23
2019-03-25T03:19:41.970Z,39.60
2019-03-25T03:22:10.504Z,41.67
2019-03-25T03:24:39.050Z,43.27
2019-03-25T03:27:07.584Z,42.73
2019-03-25T03:29:36.239Z,36.90
2019-03-25T03:32:04.779Z,39.73
2019-03-25T03:34:33.342Z,40.63
2019-03-25T03:37:01.874Z,48.97
2019-03-25T03:39:30.336Z,43.17
2019-03-25T03:41:59.591Z,37.83
2019-03-25T03:44:28.038Z,44.63
2019-03-25T03:46:56.666Z,37.80
2019-03-25T03:49:25.119Z,40.03
2019-03-25T03:51:55.226Z,46.23
2019-03-25T03:54:23.928Z,42.77
2019-03-25T03:56:54.884Z,42.10
2019-03-25T03:59:24.292Z,45.03
2019-03-25T04:01:52.760Z,41.23
2019-03-25T04:04:21.303Z,45.40
2019-03-25T04:06:49.842Z,41.63
2019-03-25T04:09:18.299Z,45.77
2019-03-25T04:11:46.764Z,48.70
2019-03-25T04:14:15.356Z,51.47
2019-03-25T04:16:43.799Z,53.90
2019-03-25T04:19:12.258Z,45.37
2019-03-25T04:21:40.719Z,48.83
2019-03-25T04:24:09.213Z,48.23
2019-03-25T04:26:37.663Z,46.40
2019-03-25T04:29:06.122Z,45.70
2019-03-25T04:31:34.588Z,47.37
2019-03-25T04:34:03.060Z,48.33
2019-03-25T04:36:31.588Z,44.93
2019-03-25T04:39:00.115Z,50.00
2019-03-25T04:41:28.581Z,44.27
2019-03-25T04:43:57.075Z,51.03
2019-03-25T04:46:25.530Z,46.83
2019-03-25T04:48:54.038Z,44.80
2019-03-25T04:51:22.497Z,46.00
2019-03-25T04:53:50.986Z,66.83
2019-03-25T04:56:19.438Z,64.13
2019-03-25T04:58:47.892Z,61.60
2019-03-25T05:01:16.391Z,54.67
2019-03-25T05:03:44.854Z,60.67
2019-03-25T05:06:13.319Z,70.67
2019-03-25T05:08:41.863Z,68.87
2019-03-25T05:11:10.331Z,66.27
2019-03-25T05:13:38.781Z,56.50
2019-03-25T05:16:07.249Z,62.40
2019-03-25T05:18:35.806Z,54.83
2019-03-25T05:21:04.268Z,50.80
2019-03-25T05:23:32.856Z,51.73
2019-03-25T05:26:01.338Z,49.43
2019-03-25T05:28:29.796Z,50.30
2019-03-25T05:30:58.292Z,46.30
2019-03-25T05:33:26.824Z,48.90
2019-03-25T05:35:55.319Z,52.93
2019-03-25T05:38:23.771Z,43.60
2019-03-25T05:40:52.235Z,50.60
2019-03-25T05:43:21.266Z,50.03
2019-03-25T05:45:49.982Z,49.83
2019-03-25T05:48:18.443Z,47.27
2019-03-25T05:50:46.896Z,45.30
2019-03-25T05:53:15.437Z,44.63
2019-03-25T05:55:43.993Z,46.30
2019-03-25T05:58:12.596Z,46.10
2019-03-25T06:00:41.530Z,38.63
2019-03-25T06:03:09.992Z,44.17
2019-03-25T06:05:38.450Z,42.67
2019-03-25T06:08:07.019Z,39.40
2019-03-25T06:10:35.475Z,40.43
2019-03-25T06:13:03.936Z,34.17
2019-03-25T06:15:32.494Z,40.13
2019-03-25T06:18:00.951Z,40.10
2019-03-25T06:20:29.411Z,33.77
2019-03-25T06:22:57.907Z,32.03
2019-03-25T06:25:26.350Z,35.33
2019-03-25T06:27:54.806Z,30.73
2019-03-25T06:30:23.416Z,38.03
2019-03-25T06:32:51.885Z,32.47
2019-03-25T06:35:20.347Z,46.40
2019-03-25T06:37:48.806Z,38.27
2019-03-25T06:40:17.335Z,42.80
2019-03-25T06:42:45.787Z,44.33
2019-03-25T06:45:15.089Z,42.63
2019-03-25T06:47:43.654Z,46.60
2019-03-25T06:50:12.347Z,32.90
2019-03-25T06:52:40.794Z,35.43
2019-03-25T06:55:09.906Z,51.83
2019-03-25T06:57:38.754Z,39.70
2019-03-25T07:00:09.379Z,31.20
2019-03-25T07:02:37.857Z,32.10
2019-03-25T07:05:07.454Z,26.40
2019-03-25T07:07:35.923Z,26.50
2019-03-25T07:10:06.110Z,35.40
2019-03-25T07:12:35.071Z,29.70
2019-03-25T07:15:04.401Z,25.20
2019-03-25T07:17:32.883Z,26.73
2019-03-25T07:20:01.410Z,22.00
2019-03-25T07:22:29.867Z,25.83
2019-03-25T07:24:58.338Z,27.30
2019-03-25T07:27:36.336Z,26.20
2019-03-25T07:29:57.079Z,34.77
2019-03-25T07:32:25.633Z,26.43
2019-03-25T07:34:54.088Z,22.90
2019-03-25T07:37:23.779Z,26.63
2019-03-25T07:39:52.430Z,19.43
2019-03-25T07:42:20.930Z,26.57
2019-03-25T07:44:49.466Z,24.83
2019-03-25T07:47:18.004Z,20.53
2019-03-25T07:49:46.546Z,24.13
2019-03-25T07:52:15.065Z,24.80
2019-03-25T07:54:43.565Z,20.23
2019-03-25T07:57:12.072Z,21.60
2019-03-25T07:59:40.527Z,21.50
2019-03-25T08:02:08.991Z,26.07
2019-03-25T08:04:38.747Z,24.73
2019-03-25T08:07:07.506Z,18.07
2019-03-25T08:09:36.044Z,18.70
2019-03-25T08:12:04.612Z,20.23
2019-03-25T08:14:33.060Z,16.27
2019-03-25T08:17:01.594Z,13.37
2019-03-25T08:19:30.065Z,14.77
2019-03-25T08:21:58.506Z,14.07
2019-03-25T08:24:26.953Z,15.83
2019-03-25T08:26:55.415Z,14.93
2019-03-25T08:29:23.881Z,15.53
2019-03-25T08:31:52.430Z,13.97
2019-03-25T08:34:20.887Z,11.50
2019-03-25T08:36:49.405Z,17.43
2019-03-25T08:39:17.866Z,12.50
2019-03-25T08:41:46.325Z,14.07
2019-03-25T08:44:14.803Z,15.53
2019-03-25T08:46:43.263Z,13.80
2019-03-25T08:49:12.090Z,16.77
2019-03-25T08:51:40.644Z,11.30
2019-03-25T08:54:09.093Z,12.43
2019-03-25T08:56:37.595Z,13.23
2019-03-25T08:59:06.293Z,9.07
2019-03-25T09:01:34.751Z,15.27
2019-03-25T09:04:03.238Z,17.97
2019-03-25T09:06:31.695Z,11.57
2019-03-25T09:09:00.147Z,13.43
2019-03-25T09:11:28.606Z,14.37
2019-03-25T09:13:57.074Z,15.07
2019-03-25T09:16:25.646Z,10.57
2019-03-25T09:18:54.162Z,13.50
2019-03-25T09:21:22.623Z,12.70
2019-03-25T09:24:10.498Z,19.70
2019-03-25T09:26:39.123Z,18.37
2019-03-25T09:29:07.639Z,14.83
2019-03-25T09:31:36.934Z,23.87
2019-03-25T09:34:06.276Z,15.30
2019-03-25T09:36:34.734Z,14.37
2019-03-25T09:39:04.836Z,15.67
2019-03-25T09:41:33.327Z,18.13
2019-03-25T09:44:01.784Z,14.30
2019-03-25T09:46:36.003Z,15.83
2019-03-25T09:49:04.645Z,12.00
2019-03-25T09:51:33.177Z,16.77
2019-03-25T09:54:01.633Z,13.63
2019-03-25T09:56:30.234Z,14.10
2019-03-25T09:58:58.719Z,14.47
2019-03-25T10:01:27.195Z,17.00
2019-03-25T10:03:55.731Z,19.17
2019-03-25T10:06:24.271Z,14.37
2019-03-25T10:08:52.731Z,16.20
2019-03-25T10:11:21.276Z,17.57
2019-03-25T10:13:49.743Z,13.90
2019-03-25T10:16:18.319Z,21.00
2019-03-25T10:18:46.841Z,13.00
2019-03-25T10:21:15.286Z,12.60
2019-03-25T10:23:43.920Z,12.33
2019-03-25T10:26:12.414Z,13.73
2019-03-25T10:28:48.689Z,13.13
2019-03-25T10:31:11.073Z,13.37
2019-03-25T10:33:39.620Z,11.63
2019-03-25T10:36:08.446Z,11.10
2019-03-25T10:38:36.913Z,14.10
2019-03-25T10:41:05.518Z,9.50
2019-03-25T10:43:33.966Z,11.90
2019-03-25T10:46:02.506Z,16.80
2019-03-25T10:48:33.863Z,52.97
2019-03-25T10:51:02.316Z,44.47
2019-03-25T10:53:30.775Z,9.53
2019-03-25T10:55:59.226Z,10.87
2019-03-25T10:58:27.817Z,9.43
2019-03-25T11:00:56.279Z,13.03
2019-03-25T11:03:24.771Z,10.23
2019-03-25T11:05:53.335Z,10.17
2019-03-25T11:08:21.857Z,10.73
2019-03-25T11:10:50.802Z,11.67
2019-03-25T11:13:19.435Z,10.50
2019-03-25T11:15:47.962Z,10.37
2019-03-25T11:18:16.424Z,9.03
2019-03-25T11:20:44.954Z,13.00
2019-03-25T11:23:13.507Z,10.83
2019-03-25T11:25:41.970Z,12.43
2019-03-25T11:28:12.234Z,12.30
2019-03-25T11:30:52.558Z,11.83
2019-03-25T11:33:21.487Z,10.37
2019-03-25T11:35:50.051Z,11.80
2019-03-25T11:38:18.944Z,7.33
2019-03-25T11:40:47.405Z,11.93
2019-03-25T11:43:15.861Z,15.23
2019-03-25T11:45:44.643Z,9.57
2019-03-25T11:48:13.673Z,9.83
2019-03-25T11:50:42.325Z,12.07
2019-03-25T11:53:10.774Z,9.63
2019-03-25T11:55:39.241Z,10.63
2019-03-25T11:58:07.706Z,10.63
2019-03-25T12:00:36.233Z,12.37
2019-03-25T12:03:04.757Z,11.20
2019-03-25T12:05:33.213Z,19.57
2019-03-25T12:08:01.674Z,12.07
2019-03-25T12:10:30.185Z,11.67
2019-03-25T12:12:58.714Z,10.60
2019-03-25T12:15:27.181Z,11.10
2019-03-25T12:17:55.731Z,11.27
2019-03-25T12:20:24.251Z,8.30
2019-03-25T12:22:52.713Z,10.27
2019-03-25T12:25:21.179Z,14.70
2019-03-25T12:27:49.737Z,10.57
2019-03-25T12:30:18.440Z,9.00
2019-03-25T12:32:46.971Z,9.33
2019-03-25T12:35:15.642Z,10.23
2019-03-25T12:37:44.672Z,13.73
2019-03-25T12:40:13.200Z,13.50
2019-03-25T12:42:41.686Z,9.93
2019-03-25T12:45:10.670Z,10.30
2019-03-25T12:47:39.155Z,11.87
2019-03-25T12:50:09.023Z,10.03
2019-03-25T12:52:37.479Z,10.63
2019-03-25T12:55:06.382Z,13.83
2019-03-25T12:57:34.829Z,9.27
2019-03-25T13:00:04.963Z,7.70
2019-03-25T13:02:33.481Z,10.27
2019-03-25T13:05:01.942Z,10.33
2019-03-25T13:07:30.398Z,9.03
2019-03-25T13:09:58.858Z,16.40
2019-03-25T13:12:27.324Z,14.70
2019-03-25T13:14:55.860Z,16.83
2019-03-25T13:17:24.331Z,18.13
2019-03-25T13:19:52.897Z,11.00
2019-03-25T13:22:21.445Z,9.67
2019-03-25T13:24:49.910Z,11.70
2019-03-25T13:27:18.366Z,15.10
2019-03-25T13:29:52.440Z,10.67
2019-03-25T13:32:17.172Z,18.03
2019-03-25T13:34:45.647Z,12.30
2019-03-25T13:37:14.114Z,12.67
2019-03-25T13:39:42.599Z,15.73
2019-03-25T13:42:11.327Z,13.63
2019-03-25T13:44:39.777Z,18.73
2019-03-25T13:47:08.275Z,14.40
2019-03-25T13:49:36.741Z,13.87
2019-03-25T13:52:05.201Z,18.37
2019-03-25T13:54:33.675Z,17.23
2019-03-25T13:57:02.334Z,14.37
2019-03-25T13:59:30.785Z,15.47
2019-03-25T14:01:59.251Z,11.93
2019-03-25T14:04:27.950Z,15.00
2019-03-25T14:06:56.447Z,17.40
2019-03-25T14:09:24.978Z,14.53
2019-03-25T14:11:53.707Z,18.17
2019-03-25T14:14:22.190Z,11.93
2019-03-25T14:16:50.637Z,13.40
2019-03-25T14:19:19.099Z,16.37
2019-03-25T14:21:47.597Z,15.40
2019-03-25T14:24:16.127Z,13.20
2019-03-25T14:26:44.582Z,13.27
2019-03-25T14:29:19.111Z,11.80
2019-03-25T14:31:47.555Z,16.63
2019-03-25T14:34:16.014Z,16.10
2019-03-25T14:36:44.602Z,12.70
2019-03-25T14:39:13.060Z,13.97
2019-03-25T14:41:41.501Z,15.93
2019-03-25T14:44:10.343Z,10.87
2019-03-25T14:46:38.807Z,14.57
2019-03-25T14:49:08.974Z,8.83
2019-03-25T14:51:37.516Z,14.07
2019-03-25T14:54:06.378Z,12.20
2019-03-25T14:56:35.706Z,12.23
2019-03-25T14:59:04.155Z,9.53
2019-03-25T15:01:32.633Z,14.97
2019-03-25T15:04:01.085Z,11.07
2019-03-25T15:06:29.530Z,15.20
2019-03-25T15:08:57.973Z,13.63
2019-03-25T15:11:26.495Z,14.27
2019-03-25T15:13:55.050Z,11.80
2019-03-25T15:16:23.497Z,14.40
2019-03-25T15:18:51.960Z,10.17
2019-03-25T15:21:20.502Z,13.93
2019-03-25T15:23:48.959Z,11.10
2019-03-25T15:26:17.442Z,12.33
2019-03-25T15:28:45.910Z,13.93
2019-03-25T15:31:14.443Z,10.57
2019-03-25T15:33:42.964Z,11.60
2019-03-25T15:36:11.437Z,11.17
2019-03-25T15:38:40.010Z,20.07
2019-03-25T15:41:08.620Z,11.60
2019-03-25T15:43:37.061Z,17.93
2019-03-25T15:46:05.556Z,20.60
2019-03-25T15:48:34.006Z,13.27
2019-03-25T15:51:02.470Z,15.43
2019-03-25T15:53:30.955Z,14.80
2019-03-25T15:55:59.406Z,13.47
2019-03-25T15:58:27.965Z,17.57
2019-03-25T16:00:56.558Z,11.13
2019-03-25T16:03:25.116Z,14.50
2019-03-25T16:05:53.583Z,15.00
2019-03-25T16:08:22.046Z,16.90
2019-03-25T16:10:51.728Z,22.37
2019-03-25T16:13:20.806Z,21.73
2019-03-25T16:15:49.353Z,25.17
2019-03-25T16:18:37.683Z,21.17
2019-03-25T16:21:06.487Z,20.87
2019-03-25T16:23:35.155Z,13.03
2019-03-25T16:26:03.822Z,12.10
2019-03-25T16:28:32.549Z,17.50
2019-03-25T16:31:01.264Z,16.33
2019-03-25T16:33:29.863Z,18.23
2019-03-25T16:35:58.330Z,25.33
2019-03-25T16:38:26.826Z,19.67
2019-03-25T16:40:55.646Z,15.53
2019-03-25T16:43:24.089Z,12.60
2019-03-25T16:45:52.573Z,10.70
2019-03-25T16:48:21.060Z,13.57
2019-03-25T16:50:49.555Z,10.43
2019-03-25T16:53:18.105Z,10.27
2019-03-25T16:55:46.553Z,7.63
2019-03-25T16:58:15.227Z,11.73
2019-03-25T17:00:43.756Z,12.33
2019-03-25T17:03:12.352Z,14.90
2019-03-25T17:05:42.411Z,16.63
2019-03-25T17:08:11.419Z,35.13
2019-03-25T17:10:39.864Z,19.77
2019-03-25T17:13:08.401Z,26.67
2019-03-25T17:15:37.099Z,23.57
2019-03-25T17:18:05.737Z,22.90
2019-03-25T17:20:34.266Z,18.77
2019-03-25T17:23:22.578Z,23.63
2019-03-25T17:25:53.229Z,25.37
2019-03-25T17:28:21.525Z,38.13
2019-03-25T17:30:50.390Z,41.47
2019-03-25T17:33:18.837Z,64.17
2019-03-25T17:35:47.289Z,42.27
2019-03-25T17:38:15.805Z,34.90
2019-03-25T17:40:44.336Z,25.53
2019-03-25T17:43:12.867Z,43.03
2019-03-25T17:45:41.497Z,26.67
2019-03-25T17:48:10.038Z,27.87
2019-03-25T17:50:38.565Z,26.17
2019-03-25T17:53:07.047Z,28.10
2019-03-25T17:55:35.989Z,29.70
2019-03-25T17:58:04.505Z,19.10
2019-03-25T18:00:44.588Z,20.43
2019-03-25T18:03:15.242Z,20.00
2019-03-25T18:05:43.274Z,21.53
2019-03-25T18:08:11.739Z,28.27
2019-03-25T18:10:40.285Z,22.17
2019-03-25T18:13:08.826Z,47.87
2019-03-25T18:15:37.406Z,70.97
2019-03-25T18:18:06.168Z,61.17
2019-03-25T18:20:34.697Z,48.43
2019-03-25T18:23:03.246Z,33.50
2019-03-25T18:25:32.068Z,23.77
2019-03-25T18:28:00.591Z,23.93
2019-03-25T18:30:33.851Z,27.90
2019-03-25T18:33:02.481Z,25.17
2019-03-25T18:35:30.980Z,32.87
2019-03-25T18:37:59.434Z,26.80
2019-03-25T18:40:27.942Z,24.20
2019-03-25T18:42:56.495Z,24.83
2019-03-25T18:45:25.290Z,27.00
2019-03-25T18:47:53.897Z,22.23
2019-03-25T18:50:22.412Z,26.43
2019-03-25T18:52:51.008Z,27.30
2019-03-25T18:55:19.549Z,22.07
2019-03-25T18:57:47.997Z,24.83
2019-03-25T19:00:33.535Z,25.50
2019-03-25T19:03:02.561Z,22.93
2019-03-25T19:05:31.650Z,24.23
2019-03-25T19:08:04.017Z,25.57
2019-03-25T19:10:32.965Z,59.73
2019-03-25T19:13:01.547Z,123.40
2019-03-25T19:15:30.355Z,139.30
2019-03-25T19:17:58.904Z,75.93
2019-03-25T19:20:27.567Z,122.03
2019-03-25T19:22:56.098Z,105.83
2019-03-25T19:25:24.597Z,39.17
2019-03-25T19:27:53.116Z,28.80
2019-03-25T19:30:21.630Z,30.57
2019-03-25T19:32:50.159Z,27.07
2019-03-25T19:35:18.686Z,21.90
2019-03-25T19:37:47.213Z,27.30
2019-03-25T19:40:15.711Z,21.97
2019-03-25T19:42:44.259Z,23.83
2019-03-25T19:45:13.722Z,24.97
2019-03-25T19:47:42.300Z,20.43
2019-03-25T19:50:11.946Z,30.43
2019-03-25T19:52:40.405Z,22.53
2019-03-25T19:55:09.412Z,35.57
2019-03-25T19:57:37.925Z,28.43
2019-03-25T20:00:11.099Z,37.13
2019-03-25T20:02:39.592Z,29.40
2019-03-25T20:05:08.567Z,28.13
2019-03-25T20:07:37.390Z,25.73
2019-03-25T20:10:07.665Z,26.57
2019-03-25T20:12:36.195Z,24.57
2019-03-25T20:15:07.501Z,25.03
2019-03-25T20:17:35.961Z,26.83
2019-03-25T20:20:06.424Z,21.73
2019-03-25T20:22:35.003Z,27.57
2019-03-25T20:25:05.816Z,27.83
2019-03-25T20:27:34.309Z,23.63
2019-03-25T20:30:03.252Z,24.13
2019-03-25T20:32:32.304Z,26.50
2019-03-25T20:35:00.951Z,35.23
2019-03-25T20:37:29.405Z,30.30
2019-03-25T20:39:58.052Z,22.00
2019-03-25T20:42:27.104Z,29.90
2019-03-25T20:44:55.599Z,23.20
2019-03-25T20:47:24.049Z,30.87
2019-03-25T20:49:52.876Z,23.97
2019-03-25T20:52:24.343Z,29.63
2019-03-25T20:54:51.995Z,27.53
2019-03-25T20:57:20.498Z,26.40
2019-03-25T20:59:49.035Z,28.03
2019-03-25T21:02:17.550Z,33.53
2019-03-25T21:04:46.116Z,35.03
2019-03-25T21:07:14.777Z,37.83
2019-03-25T21:09:43.493Z,37.23
2019-03-25T21:12:11.956Z,40.53
2019-03-25T21:14:40.499Z,32.40
2019-03-25T21:17:09.021Z,31.50
2019-03-25T21:19:37.476Z,35.67
2019-03-25T21:22:05.949Z,39.00
2019-03-25T21:24:34.575Z,36.00
2019-03-25T21:27:04.014Z,40.53
2019-03-25T21:29:32.528Z,41.93
2019-03-25T21:32:00.985Z,36.77
2019-03-25T21:34:30.671Z,34.73
2019-03-25T21:36:59.189Z,37.23
2019-03-25T21:39:27.720Z,34.63
2019-03-25T21:41:56.294Z,32.70
2019-03-25T21:44:24.786Z,36.23
2019-03-25T21:46:53.525Z,35.77
2019-03-25T21:49:22.125Z,38.33
2019-03-25T21:51:50.680Z,38.37
2019-03-25T21:54:19.307Z,39.07
2019-03-25T21:56:48.089Z,45.10
2019-03-25T21:59:16.660Z,39.83
2019-03-25T22:01:45.381Z,41.50
2019-03-25T22:04:14.011Z,43.60
2019-03-25T22:06:42.456Z,40.57
2019-03-25T22:09:11.041Z,40.73
2019-03-25T22:11:39.675Z,41.73
2019-03-25T22:14:08.259Z,46.67
2019-03-25T22:16:36.717Z,44.73
2019-03-25T22:19:05.167Z,46.00
2019-03-25T22:21:33.629Z,40.07
2019-03-25T22:24:02.122Z,48.13
2019-03-25T22:26:30.577Z,46.20
2019-03-25T22:28:59.039Z,42.90
2019-03-25T22:31:27.496Z,41.27
2019-03-25T22:33:55.973Z,43.37
2019-03-25T22:36:24.481Z,43.93
2019-03-25T22:38:52.943Z,41.90
2019-03-25T22:41:21.433Z,50.47
2019-03-25T22:43:49.959Z,42.20
2019-03-25T22:46:18.498Z,48.40
2019-03-25T22:48:47.251Z,49.57
2019-03-25T22:51:15.881Z,50.50
2019-03-25T22:53:44.424Z,45.00
2019-03-25T22:56:12.872Z,47.07
2019-03-25T22:58:41.439Z,45.57
2019-03-25T23:01:10.044Z,47.40
2019-03-25T23:03:39.740Z,46.40
2019-03-25T23:06:08.478Z,48.20
2019-03-25T23:08:37.188Z,44.03
2019-03-25T23:11:05.643Z,45.43
2019-03-25T23:13:34.247Z,49.43
2019-03-25T23:16:02.787Z,44.10
2019-03-25T23:18:31.280Z,46.47
2019-03-25T23:20:59.746Z,47.37
2019-03-25T23:23:28.211Z,42.57
2019-03-25T23:25:56.667Z,46.83
2019-03-25T23:28:29.694Z,49.90
2019-03-25T23:30:58.155Z,56.00
2019-03-25T23:33:26.615Z,52.80
2019-03-25T23:35:55.069Z,54.47
2019-03-25T23:38:23.524Z,45.83
2019-03-25T23:40:51.976Z,46.03
2019-03-25T23:43:20.428Z,41.30
2019-03-25T23:45:48.873Z,49.83
2019-03-25T23:48:17.355Z,52.10
2019-03-25T23:50:45.858Z,39.73
2019-03-25T23:53:14.318Z,45.80
2019-03-25T23:55:42.767Z,43.37
2019-03-25T23:58:11.306Z,44.57
